Aviation Digital Data Service (ADDS)

Output produced by METARs form (1409 UTC 31 May 2016)
found at http://aviationweather.gov/adds/metars/
 
KARA 311130Z 3112/0112 00000KT P6SM BKN250 
     FM311400 17006KT P6SM SCT025 
     FM311900 19010KT P6SM SCT035 
     FM010100 00000KT P6SM SCT250